Terminal Aerodrome Forecast
Issued by NWS Northern Indiana

Home | Current Version | Previous Version | Text Only | Print | Product List | Glossary On
Versions: 1 2 3 4 5 6 7 8 9 10 11 12 13
000
FTUS43 KIWX 012300
TAFFWA
TAF
KFWA 012326Z 0200/0224 06009KT P6SM FEW025 BKN250
     FM020300 VRB03KT P6SM SCT250
      TEMPO 0207/0211 5SM BR
     FM021500 07009KT P6SM SCT035=

USA.gov is the U.S. government's official web portal to all federal, state and local government web resources and services.